Time;durP1;ratioP1;P1;durP2;ratioP2;P2;SDS_P1;SDS_P2;PMS_P1;PMS_P2;Temp;Humidity;BMP_temperature;BMP_pressure;BME280_temperature;BME280_humidity;BME280_pressure;Samples;Min_cycle;Max_cycle;Signal;HPM_P1;HPM_P2
2022/10/21 00:01:55;;;;;;;5.22;3.88;;;9.10;99.90;;;;;;5219992;28;20312;-62
2022/10/21 00:04:32;;;;;;;7.88;4.28;;;9.10;99.90;;;;;;5225635;28;20396;-62
2022/10/21 00:07:06;;;;;;;8.75;4.22;;;9.20;99.90;;;;;;5199920;28;20050;-62
2022/10/21 00:09:40;;;;;;;5.03;3.92;;;9.10;99.90;;;;;;5229059;28;20029;-63
2022/10/21 00:12:11;;;;;;;8.07;3.80;;;9.10;99.90;;;;;;5236673;28;20093;-62
2022/10/21 00:14:49;;;;;;;6.30;3.92;;;9.10;99.90;;;;;;5232379;28;20262;-62
2022/10/21 00:17:23;;;;;;;5.53;3.75;;;9.10;99.90;;;;;;5217539;28;20043;-62
2022/10/21 00:19:59;;;;;;;4.47;4.07;;;9.10;99.90;;;;;;5221803;28;20043;-62
2022/10/21 00:22:33;;;;;;;4.80;3.85;;;9.00;99.90;;;;;;5189808;28;20040;-62
2022/10/21 00:25:10;;;;;;;6.30;3.83;;;9.00;99.90;;;;;;5219551;28;20036;-62
2022/10/21 00:27:41;;;;;;;6.25;3.85;;;9.10;99.90;;;;;;5219478;28;20036;-62
2022/10/21 00:30:15;;;;;;;4.88;3.60;;;9.10;99.90;;;;;;5228319;28;20037;-62
2022/10/21 00:32:46;;;;;;;5.73;4.30;;;9.00;99.90;;;;;;5219506;28;20644;-62
2022/10/21 00:35:22;;;;;;;7.50;4.47;;;8.90;99.90;;;;;;5198803;28;20297;-62
2022/10/21 00:37:56;;;;;;;6.88;4.07;;;8.90;99.90;;;;;;5209369;28;20236;-62
2022/10/21 00:40:27;;;;;;;6.57;4.00;;;8.70;99.90;;;;;;5232304;28;20346;-62
2022/10/21 00:43:01;;;;;;;5.93;3.75;;;8.60;99.90;;;;;;5228813;28;20303;-62
2022/10/21 00:45:37;;;;;;;;;;;8.60;99.90;;;;;;5217749;28;20040;-62
2022/10/21 00:48:17;;;;;;;7.53;4.07;;;8.50;99.90;;;;;;5215291;28;19909;-62
2022/10/21 00:51:03;;;;;;;6.30;3.60;;;8.50;99.90;;;;;;5200466;28;20037;-62
2022/10/21 00:53:38;;;;;;;5.07;4.18;;;8.40;99.90;;;;;;5220355;28;20294;-62
2022/10/21 00:56:15;;;;;;;5.38;4.15;;;8.40;99.90;;;;;;5218951;28;20052;-62
2022/10/21 00:58:52;;;;;;;6.07;3.83;;;8.30;99.90;;;;;;5219038;28;20187;-62
2022/10/21 01:01:24;;;;;;;5.25;4.15;;;8.20;99.90;;;;;;5254908;22;20478;-79
2022/10/21 01:03:55;;;;;;;6.38;4.25;;;8.20;99.90;;;;;;5255042;28;20040;-80
2022/10/21 01:06:30;;;;;;;8.13;4.53;;;8.20;99.90;;;;;;5261275;28;20441;-79
2022/10/21 01:09:04;;;;;;;8.07;4.03;;;8.20;99.90;;;;;;5251116;28;20024;-80
2022/10/21 01:11:44;;;;;;;5.13;3.63;;;8.10;99.90;;;;;;5232537;28;20724;-79
2022/10/21 01:14:30;;;;;;;7.38;4.53;;;8.10;99.90;;;;;;5232533;28;20577;-79
2022/10/21 01:17:20;;;;;;;7.30;4.30;;;8.00;99.90;;;;;;5268286;28;20027;-79
2022/10/21 01:20:31;;;;;;;6.15;3.75;;;7.90;99.90;;;;;;5253159;28;20478;-78
2022/10/21 01:23:05;;;;;;;5.38;3.97;;;7.90;99.90;;;;;;5270349;28;20012;-79
2022/10/21 01:26:15;;;;;;;6.82;4.80;;;7.80;99.90;;;;;;5260003;28;20032;-79
2022/10/21 01:29:11;;;;;;;7.25;3.60;;;7.80;99.90;;;;;;5219537;28;20027;-79
2022/10/21 01:32:05;;;;;;;7.22;4.03;;;7.70;99.90;;;;;;5252630;28;20024;-78
2022/10/21 01:34:52;;;;;;;5.35;4.57;;;7.70;99.90;;;;;;5265019;28;20580;-78
2022/10/21 01:37:31;;;;;;;5.22;3.40;;;7.70;99.90;;;;;;5269393;28;20334;-78
2022/10/21 01:40:13;;;;;;;10.80;4.50;;;7.70;99.90;;;;;;5252997;28;20020;-79
2022/10/21 01:43:02;;;;;;;5.55;3.60;;;7.70;99.90;;;;;;5269661;28;20366;-80
2022/10/21 01:45:49;;;;;;;6.18;4.28;;;7.70;99.90;;;;;;5269683;28;20024;-79
2022/10/21 01:48:33;;;;;;;6.03;4.25;;;7.70;99.90;;;;;;5270466;28;20028;-79
2022/10/21 01:51:15;;;;;;;6.32;4.70;;;7.70;99.90;;;;;;5258381;28;20012;-79
2022/10/21 01:54:04;;;;;;;8.63;4.53;;;7.70;99.90;;;;;;5270085;28;20033;-79
2022/10/21 01:56:42;;;;;;;7.85;4.50;;;7.70;99.90;;;;;;5269625;28;20036;-80
2022/10/21 01:59:19;;;;;;;8.90;4.95;;;7.60;99.90;;;;;;5251103;28;20028;-79
2022/10/21 02:01:52;;;;;;;5.82;4.15;;;7.60;99.90;;;;;;5264709;28;20364;-79
2022/10/21 02:04:25;;;;;;;6.68;4.80;;;7.60;99.90;;;;;;5260393;28;20384;-79
2022/10/21 02:06:56;;;;;;;5.65;4.05;;;7.50;99.90;;;;;;5283312;28;20669;-79
2022/10/21 02:09:27;;;;;;;6.70;4.13;;;7.50;99.90;;;;;;5235065;28;20220;-79
2022/10/21 02:12:05;;;;;;;8.05;4.82;;;7.40;99.90;;;;;;5268700;28;20020;-79
2022/10/21 02:14:48;;;;;;;4.93;3.88;;;7.30;99.90;;;;;;5269934;28;20226;-78
2022/10/21 02:17:24;;;;;;;7.55;3.90;;;7.30;99.90;;;;;;5265582;28;20035;-79
2022/10/21 02:19:59;;;;;;;6.28;4.22;;;7.30;99.90;;;;;;5252004;28;20474;-78
2022/10/21 02:22:32;;;;;;;5.25;4.10;;;7.20;99.90;;;;;;5251377;28;20121;-77
2022/10/21 02:25:19;;;;;;;7.03;5.05;;;7.30;99.90;;;;;;5260282;28;20937;-78
2022/10/21 02:27:52;;;;;;;6.50;4.70;;;7.30;99.90;;;;;;5241252;28;20031;-80
2022/10/21 02:30:26;;;;;;;8.15;5.07;;;7.30;99.90;;;;;;5252957;28;20040;-80
2022/10/21 02:33:10;;;;;;;5.78;4.25;;;7.40;99.90;;;;;;5260381;28;20055;-80
2022/10/21 02:35:50;;;;;;;7.00;4.75;;;7.40;99.90;;;;;;5248418;28;20029;-80
2022/10/21 02:38:29;;;;;;;9.93;5.22;;;7.30;99.90;;;;;;5231267;28;20314;-80
2022/10/21 02:41:13;;;;;;;7.60;5.15;;;7.40;99.90;;;;;;5249307;28;20372;-80
2022/10/21 02:43:59;;;;;;;7.72;4.28;;;7.40;99.90;;;;;;5253089;28;20026;-79
2022/10/21 02:46:43;;;;;;;5.70;4.20;;;7.40;99.90;;;;;;5263572;28;20024;-79
2022/10/21 02:49:14;;;;;;;7.85;4.50;;;7.30;99.90;;;;;;5255943;28;20019;-79
2022/10/21 02:51:48;;;;;;;7.65;5.13;;;7.20;99.90;;;;;;5269019;28;20060;-78
2022/10/21 02:54:22;;;;;;;5.57;4.45;;;7.20;99.90;;;;;;5254770;28;20030;-78
2022/10/21 02:56:55;;;;;;;7.55;4.80;;;7.20;99.90;;;;;;5269118;28;20105;-78
2022/10/21 02:59:27;;;;;;;8.02;5.28;;;7.20;99.90;;;;;;5250864;28;20039;-79
2022/10/21 03:01:58;;;;;;;6.18;4.50;;;7.20;99.90;;;;;;5258726;28;20035;-79
2022/10/21 03:04:29;;;;;;;8.32;4.80;;;7.30;99.90;;;;;;5239548;28;20545;-79
2022/10/21 03:07:03;;;;;;;9.05;4.47;;;7.40;99.90;;;;;;5251627;28;20030;-79
2022/10/21 03:09:34;;;;;;;6.63;5.03;;;7.40;99.90;;;;;;5265699;28;20034;-79
2022/10/21 03:12:05;;;;;;;6.38;4.50;;;7.50;99.90;;;;;;5272202;28;20035;-79
2022/10/21 03:14:39;;;;;;;8.57;5.10;;;7.50;99.90;;;;;;5250351;28;20036;-78
2022/10/21 03:17:10;;;;;;;7.53;5.53;;;7.50;99.90;;;;;;5265460;28;20026;-78
2022/10/21 03:19:41;;;;;;;8.55;4.47;;;7.50;99.90;;;;;;5273114;28;20036;-78
2022/10/21 03:22:17;;;;;;;6.47;4.50;;;7.50;99.90;;;;;;5272224;28;20042;-78
2022/10/21 03:24:53;;;;;;;8.60;5.03;;;7.50;99.90;;;;;;5266472;28;20035;-81
2022/10/21 03:27:34;;;;;;;7.25;4.93;;;7.50;99.90;;;;;;5259765;28;20028;-78
2022/10/21 03:30:06;;;;;;;8.43;4.47;;;7.40;99.90;;;;;;5231233;28;20030;-78
2022/10/21 03:32:38;;;;;;;7.57;4.65;;;7.40;99.90;;;;;;5254838;28;20318;-78
2022/10/21 03:35:10;;;;;;;7.13;4.65;;;7.40;99.90;;;;;;5272493;28;20024;-78
2022/10/21 03:37:41;;;;;;;7.38;4.57;;;7.40;99.90;;;;;;5270496;28;20035;-79
2022/10/21 03:40:18;;;;;;;5.35;4.10;;;7.50;99.90;;;;;;5254414;28;20044;-78
2022/10/21 03:42:51;;;;;;;6.13;4.03;;;7.40;99.90;;;;;;5253636;28;20359;-78
2022/10/21 03:45:25;;;;;;;6.30;4.70;;;7.40;99.90;;;;;;5258735;28;20029;-78
2022/10/21 03:47:56;;;;;;;9.33;5.30;;;7.30;99.90;;;;;;5233499;28;20260;-79
2022/10/21 03:50:27;;;;;;;7.57;4.95;;;7.30;99.90;;;;;;5251549;28;20262;-79
2022/10/21 03:53:01;;;;;;;8.30;5.10;;;7.30;99.90;;;;;;5250318;28;20463;-79
2022/10/21 03:55:33;;;;;;;6.25;5.03;;;7.20;99.90;;;;;;5216381;28;20043;-80
2022/10/21 03:58:05;;;;;;;5.95;4.53;;;7.20;99.90;;;;;;5244093;28;20030;-79
2022/10/21 04:00:36;;;;;;;10.45;4.80;;;7.20;99.90;;;;;;5265657;28;20050;-79
2022/10/21 04:03:07;;;;;;;8.80;4.85;;;7.10;99.90;;;;;;5272201;28;20027;-78
2022/10/21 04:05:39;;;;;;;7.43;5.43;;;7.00;99.90;;;;;;5261935;28;20048;-78
2022/10/21 04:08:10;;;;;;;8.18;4.57;;;6.90;99.90;;;;;;5254537;28;20346;-78
2022/10/21 04:10:45;;;;;;;7.80;4.60;;;6.80;99.90;;;;;;5251026;28;20025;-78
2022/10/21 04:13:18;;;;;;;;;;;6.70;99.90;;;;;;5265325;28;20016;-79
2022/10/21 04:15:52;;;;;;;6.68;4.47;;;6.70;99.90;;;;;;5250912;28;19900;-79
2022/10/21 04:18:25;;;;;;;9.20;5.90;;;6.60;99.90;;;;;;5249904;28;20071;-79
2022/10/21 04:20:57;;;;;;;12.90;8.80;;;6.50;99.90;;;;;;5250394;28;20036;-80
2022/10/21 04:23:30;;;;;;;11.95;8.00;;;6.50;99.90;;;;;;5250513;28;20032;-82
2022/10/21 04:26:03;;;;;;;11.73;6.30;;;6.40;99.90;;;;;;5243579;28;20020;-79
2022/10/21 04:28:34;;;;;;;14.38;9.05;;;6.40;99.90;;;;;;5236743;28;20038;-80
2022/10/21 04:31:09;;;;;;;10.20;7.53;;;6.40;99.90;;;;;;5229836;28;20033;-81
2022/10/21 04:33:40;;;;;;;;;;;6.30;99.90;;;;;;5242298;28;20091;-81
2022/10/21 04:36:16;;;;;;;10.18;5.53;;;6.30;99.90;;;;;;5251787;28;19971;-80
2022/10/21 04:38:47;;;;;;;7.47;4.75;;;6.20;99.90;;;;;;5251535;28;20195;-80
2022/10/21 04:41:21;;;;;;;7.93;5.28;;;6.20;99.90;;;;;;5249778;28;20047;-81
2022/10/21 04:43:53;;;;;;;9.40;5.90;;;6.20;99.90;;;;;;5248603;28;20031;-80
2022/10/21 04:46:29;;;;;;;13.80;5.43;;;6.20;99.90;;;;;;5233001;28;20024;-80
2022/10/21 04:49:00;;;;;;;11.85;6.47;;;6.10;99.90;;;;;;5250709;28;20032;-80
2022/10/21 04:51:31;;;;;;;10.57;6.00;;;6.00;99.90;;;;;;5251547;28;20035;-80
2022/10/21 04:54:03;;;;;;;10.57;5.65;;;6.00;99.90;;;;;;5243414;28;20406;-80
2022/10/21 04:56:34;;;;;;;12.23;5.57;;;5.90;99.90;;;;;;5231824;28;20033;-79
2022/10/21 04:59:06;;;;;;;12.98;8.07;;;6.00;99.90;;;;;;5231460;28;20033;-83
2022/10/21 05:01:37;;;;;;;12.27;7.45;;;6.00;99.90;;;;;;5243957;28;20688;-80
2022/10/21 05:04:08;;;;;;;9.13;6.35;;;5.90;99.90;;;;;;5249786;28;20020;-82
2022/10/21 05:06:39;;;;;;;9.70;5.85;;;5.90;99.90;;;;;;5230010;28;20043;-82
2022/10/21 05:09:11;;;;;;;12.40;6.25;;;5.80;99.90;;;;;;5248598;28;20222;-81
2022/10/21 05:11:42;;;;;;;8.90;6.28;;;5.80;99.90;;;;;;5233893;28;20020;-81
2022/10/21 05:14:13;;;;;;;10.90;7.65;;;5.80;99.90;;;;;;5248682;28;20027;-81
2022/10/21 05:16:44;;;;;;;11.23;7.13;;;5.80;99.90;;;;;;5227662;28;20035;-81
2022/10/21 05:19:19;;;;;;;12.45;6.80;;;5.80;99.90;;;;;;5246725;28;20106;-81
2022/10/21 05:21:53;;;;;;;9.07;6.75;;;5.80;99.90;;;;;;5230251;28;20024;-81
2022/10/21 05:24:27;;;;;;;11.73;7.05;;;5.80;99.90;;;;;;5241164;28;20167;-81
2022/10/21 05:26:58;;;;;;;12.25;6.63;;;5.80;99.90;;;;;;5206782;28;20345;-81
2022/10/21 05:29:29;;;;;;;11.55;6.78;;;5.70;99.90;;;;;;5250287;28;20950;-79
2022/10/21 05:32:03;;;;;;;16.95;5.32;;;5.70;99.90;;;;;;5212209;28;20044;-81
2022/10/21 05:34:34;;;;;;;9.82;5.97;;;5.70;99.90;;;;;;5249962;28;20020;-80
2022/10/21 05:37:06;;;;;;;12.20;7.65;;;5.70;99.90;;;;;;5249585;28;20042;-81
2022/10/21 05:39:37;;;;;;;13.45;7.13;;;5.70;99.90;;;;;;5233135;28;20032;-81
2022/10/21 05:42:08;;;;;;;15.90;7.25;;;5.60;99.90;;;;;;5251332;28;20028;-80
2022/10/21 05:44:42;;;;;;;10.07;6.43;;;5.70;99.90;;;;;;5233767;28;20029;-81
2022/10/21 05:47:16;;;;;;;14.68;6.18;;;5.70;99.90;;;;;;5210922;28;20036;-83
2022/10/21 05:49:51;;;;;;;10.02;6.15;;;5.80;99.90;;;;;;5235170;28;20047;-81
2022/10/21 05:52:25;;;;;;;9.15;6.30;;;5.90;99.90;;;;;;5238370;28;20031;-81
2022/10/21 05:55:00;;;;;;;14.05;6.95;;;6.00;99.90;;;;;;5243194;28;20214;-81
2022/10/21 05:57:31;;;;;;;;;;;6.10;99.90;;;;;;5243163;28;20287;-80
2022/10/21 06:00:17;;;;;;;10.00;5.45;;;6.20;99.90;;;;;;5230497;28;19919;-80
2022/10/21 06:02:51;;;;;;;9.73;6.03;;;6.30;99.90;;;;;;5229805;28;20377;-81
2022/10/21 06:05:25;;;;;;;9.15;6.07;;;6.40;99.90;;;;;;5208901;28;20056;-81
2022/10/21 06:07:59;;;;;;;9.85;6.10;;;6.50;99.90;;;;;;5225337;28;20043;-81
2022/10/21 06:10:58;;;;;;;12.75;6.55;;;6.60;99.90;;;;;;5243330;28;20023;-80
2022/10/21 06:13:30;;;;;;;11.90;6.47;;;6.80;99.90;;;;;;5207927;28;20032;-80
2022/10/21 06:16:03;;;;;;;12.13;5.95;;;6.80;99.90;;;;;;5225152;28;20322;-81
2022/10/21 06:18:34;;;;;;;12.57;6.20;;;7.00;99.90;;;;;;5227454;28;20028;-82
2022/10/21 06:21:12;;;;;;;9.77;6.05;;;7.10;99.90;;;;;;5229624;28;20024;-81
2022/10/21 06:23:43;;;;;;;12.80;6.65;;;7.30;99.90;;;;;;5230951;28;20293;-80
2022/10/21 06:26:18;;;;;;;11.43;5.97;;;7.50;99.90;;;;;;5249144;28;20020;-81
2022/10/21 06:28:52;;;;;;;10.60;6.45;;;7.60;99.90;;;;;;5231210;28;20032;-80
2022/10/21 06:31:24;;;;;;;9.45;6.00;;;7.80;99.90;;;;;;5230384;28;20040;-80
2022/10/21 06:33:55;;;;;;;9.55;6.30;;;7.90;99.90;;;;;;5246721;28;20042;-81
2022/10/21 06:36:28;;;;;;;10.32;6.07;;;8.00;99.90;;;;;;5230976;28;20020;-81
2022/10/21 06:39:02;;;;;;;12.32;7.03;;;8.20;99.90;;;;;;5231801;28;20036;-82
2022/10/21 06:41:33;;;;;;;9.15;6.13;;;8.30;99.90;;;;;;5230906;28;20020;-82
2022/10/21 06:44:05;;;;;;;11.93;6.75;;;8.40;99.90;;;;;;5229086;28;20219;-82
2022/10/21 06:46:36;;;;;;;13.05;6.15;;;8.60;99.90;;;;;;5229504;28;20025;-82
2022/10/21 06:49:07;;;;;;;8.80;6.53;;;8.80;99.90;;;;;;5229706;28;20039;-82
2022/10/21 06:51:38;;;;;;;9.10;5.75;;;9.10;99.90;;;;;;5243904;28;20042;-82
2022/10/21 06:54:10;;;;;;;8.80;5.53;;;9.10;99.90;;;;;;5248253;28;20346;-83
2022/10/21 06:56:44;;;;;;;7.15;5.03;;;9.40;99.90;;;;;;5248602;28;20029;-84
2022/10/21 06:59:20;;;;;;;6.85;5.07;;;9.70;99.90;;;;;;5230567;28;20444;-82
2022/10/21 07:01:54;;;;;;;8.88;5.05;;;9.80;99.90;;;;;;5231485;28;20066;-82
2022/10/21 07:04:27;;;;;;;13.13;5.57;;;9.80;99.90;;;;;;5237943;28;20051;-83
2022/10/21 07:06:59;;;;;;;9.52;5.53;;;9.80;99.90;;;;;;5225234;28;20036;-82
2022/10/21 07:09:35;;;;;;;7.60;5.30;;;9.80;99.90;;;;;;5239872;28;20032;-81
2022/10/21 07:12:09;;;;;;;7.38;5.03;;;9.90;99.90;;;;;;5247344;28;20024;-83
2022/10/21 07:14:40;;;;;;;8.23;5.38;;;10.00;99.90;;;;;;5207027;28;20040;-83
2022/10/21 07:17:11;;;;;;;8.00;5.15;;;10.10;99.90;;;;;;5228432;28;20619;-83
2022/10/21 07:19:45;;;;;;;8.70;4.90;;;10.10;99.90;;;;;;5228293;28;20035;-85
2022/10/21 07:22:18;;;;;;;8.10;5.50;;;10.30;99.90;;;;;;5245978;28;20043;-83
2022/10/21 07:24:54;;;;;;;9.98;5.57;;;10.10;99.90;;;;;;5248513;28;20062;-82
2022/10/21 07:27:26;;;;;;;14.65;5.57;;;10.10;99.90;;;;;;5234694;28;20040;-82
2022/10/21 07:29:57;;;;;;;11.63;5.45;;;10.20;99.90;;;;;;5247062;28;20017;-82
2022/10/21 07:32:28;;;;;;;12.85;5.47;;;10.20;99.90;;;;;;5230825;28;20035;-81
2022/10/21 07:35:02;;;;;;;9.85;6.00;;;10.30;99.90;;;;;;5212207;28;20274;-81
2022/10/21 07:37:33;;;;;;;9.07;6.13;;;10.20;99.90;;;;;;5229540;28;20258;-82
2022/10/21 07:40:07;;;;;;;7.97;5.55;;;10.30;99.90;;;;;;5229020;28;20040;-82
2022/10/21 07:42:39;;;;;;;7.97;5.93;;;10.20;99.90;;;;;;5230442;28;20047;-82
2022/10/21 07:45:13;;;;;;;8.52;5.35;;;10.30;99.90;;;;;;5229397;28;20032;-82
2022/10/21 07:47:44;;;;;;;9.27;5.00;;;10.50;99.90;;;;;;5238428;28;20039;-82
2022/10/21 07:50:15;;;;;;;8.48;5.28;;;10.50;99.90;;;;;;5229418;28;20036;-82
2022/10/21 07:52:47;;;;;;;7.53;5.93;;;10.50;99.90;;;;;;5228976;28;20348;-82
2022/10/21 07:55:21;;;;;;;14.23;6.07;;;10.60;99.90;;;;;;5227619;28;20376;-82
2022/10/21 07:57:52;;;;;;;7.35;5.45;;;10.90;99.90;;;;;;5228987;28;20378;-82
2022/10/21 08:00:23;;;;;;;6.60;5.45;;;11.10;99.90;;;;;;5246032;28;20221;-82
2022/10/21 08:02:59;;;;;;;8.40;5.43;;;11.20;99.90;;;;;;5247375;28;20036;-83
2022/10/21 08:05:31;;;;;;;9.60;5.57;;;11.50;99.90;;;;;;5218362;28;20040;-83
2022/10/21 08:08:04;;;;;;;7.20;4.85;;;11.60;99.90;;;;;;5236888;28;20054;-83
2022/10/21 08:10:39;;;;;;;7.25;5.47;;;11.90;99.90;;;;;;5247706;28;20020;-83
2022/10/21 08:13:13;;;;;;;7.35;4.97;;;12.30;99.90;;;;;;5230663;28;20028;-81
2022/10/21 08:15:47;;;;;;;9.75;5.70;;;12.50;99.90;;;;;;5245596;28;20509;-82
2022/10/21 08:18:27;;;;;;;9.38;5.57;;;12.40;99.90;;;;;;5241887;28;20055;-84
2022/10/21 08:21:07;;;;;;;7.63;5.43;;;12.60;99.90;;;;;;5249084;28;20046;-81
2022/10/21 08:23:41;;;;;;;8.80;5.35;;;12.50;99.90;;;;;;5246558;28;20044;-81
2022/10/21 08:26:32;;;;;;;6.97;5.38;;;12.80;99.90;;;;;;5246800;28;20334;-81
2022/10/21 08:29:04;;;;;;;9.35;5.63;;;13.00;99.90;;;;;;5247974;28;20027;-81
2022/10/21 08:31:36;;;;;;;8.38;5.88;;;13.20;99.90;;;;;;5246218;28;20024;-81
2022/10/21 08:34:08;;;;;;;8.57;5.10;;;13.00;99.90;;;;;;5247691;28;20033;-81
2022/10/21 08:36:42;;;;;;;6.63;5.00;;;13.10;99.90;;;;;;5247439;28;20024;-82
2022/10/21 08:39:13;;;;;;;;;;;13.30;99.90;;;;;;5248282;28;20032;-80
2022/10/21 08:42:05;;;;;;;9.70;5.32;;;13.70;99.90;;;;;;5247515;28;19979;-81
2022/10/21 08:44:38;;;;;;;7.35;4.80;;;14.10;99.90;;;;;;5235057;28;20031;-81
2022/10/21 08:47:19;;;;;;;8.48;4.47;;;14.00;99.90;;;;;;5246540;28;20466;-80
2022/10/21 08:50:21;;;;;;;7.38;4.43;;;13.60;99.90;;;;;;5237739;28;20057;-81
2022/10/21 08:52:58;;;;;;;5.50;4.28;;;13.70;99.90;;;;;;5236078;28;20214;-81
2022/10/21 08:55:34;;;;;;;5.80;4.18;;;13.80;99.90;;;;;;5242851;28;20372;-81
2022/10/21 08:58:16;;;;;;;12.63;4.63;;;13.80;99.90;;;;;;5247165;28;20326;-81
2022/10/21 09:00:56;;;;;;;9.90;4.40;;;13.60;99.90;;;;;;5243336;28;20130;-81
2022/10/21 09:03:59;;;;;;;5.50;4.32;;;13.90;99.90;;;;;;5246752;28;20040;-80
2022/10/21 09:06:56;;;;;;;6.95;4.90;;;13.60;99.90;;;;;;5222746;28;20055;-81
2022/10/21 09:09:41;;;;;;;6.88;4.50;;;13.40;99.90;;;;;;5246468;28;20310;-81
2022/10/21 09:12:52;;;;;;;12.52;4.47;;;13.30;99.90;;;;;;5247500;28;20020;-84
2022/10/21 09:15:39;;;;;;;13.65;4.38;;;13.20;99.90;;;;;;5243878;28;20051;-80
2022/10/21 09:18:10;;;;;;;14.55;4.72;;;13.20;99.90;;;;;;5246713;28;20332;-81
2022/10/21 09:20:55;;;;;;;8.82;4.40;;;13.60;99.90;;;;;;5246552;28;20035;-80
2022/10/21 09:23:42;;;;;;;8.73;4.22;;;13.60;99.90;;;;;;5246340;28;20032;-81
2022/10/21 09:26:22;;;;;;;4.53;3.92;;;13.80;99.90;;;;;;5246809;28;20028;-81
2022/10/21 09:28:55;;;;;;;8.20;3.90;;;14.10;99.90;;;;;;5245091;28;20242;-80
2022/10/21 09:31:28;;;;;;;7.82;4.20;;;14.30;99.90;;;;;;5237709;28;20305;-82
2022/10/21 09:34:05;;;;;;;7.10;4.05;;;14.20;99.90;;;;;;5243836;28;20028;-82
2022/10/21 09:36:46;;;;;;;8.07;4.15;;;14.10;99.90;;;;;;5249307;28;20225;-82
2022/10/21 09:39:32;;;;;;;5.97;4.88;;;13.90;99.90;;;;;;5248202;28;20356;-81
2022/10/21 09:42:05;;;;;;;6.22;4.35;;;13.80;99.90;;;;;;5245937;28;20035;-83
2022/10/21 09:44:36;;;;;;;6.97;4.47;;;13.60;99.90;;;;;;5245575;28;20110;-80
2022/10/21 09:47:23;;;;;;;8.57;4.20;;;13.80;99.90;;;;;;5227585;28;20033;-81
2022/10/21 09:50:00;;;;;;;11.90;3.85;;;13.90;99.90;;;;;;5208746;28;20324;-81
2022/10/21 09:52:34;;;;;;;7.70;4.28;;;13.50;99.90;;;;;;5235399;28;20031;-81
2022/10/21 09:55:10;;;;;;;;;;;13.40;99.90;;;;;;5248960;28;20028;-81
2022/10/21 09:58:00;;;;;;;4.22;3.40;;;13.30;99.90;;;;;;5263527;28;20206;-81
2022/10/21 10:00:49;;;;;;;6.72;4.03;;;13.40;99.90;;;;;;5245404;28;20047;-80
2022/10/21 10:03:33;;;;;;;5.10;3.97;;;13.70;99.90;;;;;;5244980;28;20032;-80
2022/10/21 10:06:05;;;;;;;6.47;4.53;;;13.90;99.90;;;;;;5250950;28;20257;-80
2022/10/21 10:08:46;;;;;;;9.10;4.30;;;13.70;99.90;;;;;;5240555;28;20035;-82
2022/10/21 10:11:20;;;;;;;5.43;3.88;;;13.70;99.90;;;;;;5227215;28;20035;-81
2022/10/21 10:13:57;;;;;;;4.60;3.40;;;13.60;99.90;;;;;;5243744;28;20025;-82
2022/10/21 10:16:31;;;;;;;10.60;3.30;;;14.20;99.90;;;;;;5247095;28;20029;-80
2022/10/21 10:19:29;;;;;;;5.78;3.92;;;14.30;99.90;;;;;;5245508;28;20210;-81
2022/10/21 10:22:30;;;;;;;4.32;3.45;;;14.10;99.90;;;;;;5243405;28;20043;-82
2022/10/21 10:25:20;;;;;;;5.78;3.92;;;14.10;99.90;;;;;;5244579;28;20266;-81
2022/10/21 10:28:01;;;;;;;9.55;3.88;;;14.30;99.90;;;;;;5248676;28;20294;-81
2022/10/21 10:30:54;;;;;;;6.25;3.33;;;14.70;99.90;;;;;;5244881;28;20024;-81
2022/10/21 10:33:34;;;;;;;5.90;3.97;;;14.80;99.90;;;;;;5247178;28;20036;-81
2022/10/21 10:36:06;;;;;;;7.25;3.75;;;14.50;99.90;;;;;;5245799;28;20426;-80
2022/10/21 10:38:44;;;;;;;8.63;3.60;;;14.30;99.90;;;;;;5246930;28;20020;-83
2022/10/21 10:41:19;;;;;;;6.95;4.25;;;13.90;99.90;;;;;;5242653;28;20322;-81
2022/10/21 10:43:53;;;;;;;6.38;3.75;;;13.70;99.90;;;;;;5245115;28;20334;-82
2022/10/21 10:46:36;;;;;;;7.95;3.60;;;13.60;99.90;;;;;;5246675;28;20028;-81
2022/10/21 10:49:15;;;;;;;9.20;3.85;;;13.80;99.90;;;;;;5224455;28;20036;-83
2022/10/21 10:52:03;;;;;;;4.10;3.70;;;13.70;99.90;;;;;;5232760;28;20029;-81
2022/10/21 10:54:35;;;;;;;9.70;4.38;;;14.00;99.90;;;;;;5227025;28;20040;-81
2022/10/21 10:57:12;;;;;;;8.77;3.72;;;13.70;99.90;;;;;;5244614;28;20032;-81
2022/10/21 10:59:54;;;;;;;6.80;4.55;;;14.10;99.90;;;;;;5244781;28;20360;-82
2022/10/21 11:02:36;;;;;;;7.63;4.22;;;14.10;99.90;;;;;;5241146;28;20388;-82
2022/10/21 11:05:37;;;;;;;9.85;4.00;;;14.30;99.90;;;;;;5242055;28;20054;-81
2022/10/21 11:08:19;;;;;;;5.85;4.13;;;13.90;99.90;;;;;;5239576;28;20028;-81
2022/10/21 11:11:16;;;;;;;7.45;4.32;;;13.90;99.90;;;;;;5229276;28;20042;-81
2022/10/21 11:13:47;;;;;;;5.05;3.60;;;14.20;99.90;;;;;;5248086;28;20031;-82
2022/10/21 11:16:38;;;;;;;7.13;3.60;;;14.50;99.90;;;;;;5249403;28;20038;-80
2022/10/21 11:19:33;;;;;;;6.68;4.05;;;14.90;99.90;;;;;;5244397;28;20020;-80
2022/10/21 11:22:30;;;;;;;5.57;4.07;;;15.20;99.90;;;;;;5242529;28;20046;-80
2022/10/21 11:25:21;;;;;;;6.05;4.03;;;15.80;99.90;;;;;;5242019;28;20508;-80
2022/10/21 11:28:14;;;;;;;4.80;3.95;;;16.00;99.90;;;;;;5249821;28;20024;-80
2022/10/21 11:30:56;;;;;;;8.93;4.07;;;15.60;99.90;;;;;;5244334;28;20038;-80
2022/10/21 11:33:42;;;;;;;6.72;4.10;;;15.00;99.90;;;;;;5243867;28;20236;-81
2022/10/21 11:36:22;;;;;;;6.40;4.38;;;14.90;99.90;;;;;;5249583;28;20031;-81
2022/10/21 11:39:11;;;;;;;5.72;3.83;;;14.60;99.90;;;;;;5243522;28;20054;-81
2022/10/21 11:42:11;;;;;;;7.47;3.75;;;15.00;99.90;;;;;;5241928;28;20212;-81
2022/10/21 11:45:06;;;;;;;5.80;4.15;;;15.50;99.90;;;;;;5243039;28;20036;-81
2022/10/21 11:48:00;;;;;;;7.93;4.47;;;15.60;99.90;;;;;;5247959;28;20062;-81
2022/10/21 11:51:08;;;;;;;4.63;3.60;;;15.30;99.90;;;;;;5248491;28;20009;-80
2022/10/21 11:54:02;;;;;;;4.15;3.65;;;15.20;99.90;;;;;;5248958;28;20017;-80
2022/10/21 11:56:47;;;;;;;10.27;3.80;;;14.70;99.90;;;;;;5249551;28;20015;-81
2022/10/21 11:59:39;;;;;;;6.13;4.57;;;14.40;99.90;;;;;;5235119;28;20270;-80
2022/10/21 12:02:21;;;;;;;5.55;3.75;;;14.60;99.90;;;;;;5245341;28;20206;-81
2022/10/21 12:05:12;;;;;;;6.18;4.13;;;14.30;99.90;;;;;;5243693;28;20035;-83
2022/10/21 12:07:58;;;;;;;4.95;3.83;;;14.70;99.90;;;;;;5247177;28;20024;-81
2022/10/21 12:10:58;;;;;;;5.10;4.30;;;14.50;99.90;;;;;;5259849;28;20036;-82
2022/10/21 12:13:42;;;;;;;4.97;3.88;;;14.70;99.90;;;;;;5241785;28;20032;-82
2022/10/21 12:16:22;;;;;;;5.93;4.27;;;14.90;99.90;;;;;;5245000;28;20346;-81
2022/10/21 12:18:57;;;;;;;8.55;4.40;;;14.70;99.90;;;;;;5238159;28;20038;-82
2022/10/21 12:21:34;;;;;;;7.53;4.40;;;14.50;99.90;;;;;;5248015;28;20032;-83
2022/10/21 12:24:29;;;;;;;4.47;4.07;;;14.50;99.90;;;;;;5246287;28;20035;-80
2022/10/21 12:27:18;;;;;;;6.88;4.25;;;14.20;99.90;;;;;;5248145;28;20026;-80
2022/10/21 12:30:28;;;;;;;5.88;4.13;;;14.10;99.90;;;;;;5247834;28;20264;-83
2022/10/21 12:33:11;;;;;;;13.50;4.57;;;13.90;99.90;;;;;;5223536;28;20036;-81
2022/10/21 12:35:49;;;;;;;12.60;4.28;;;13.90;99.90;;;;;;5224352;28;20037;-81
2022/10/21 12:38:48;;;;;;;5.28;4.32;;;13.80;99.90;;;;;;5224734;28;20025;-83
2022/10/21 12:41:22;;;;;;;10.68;4.47;;;13.90;99.90;;;;;;5224224;28;20033;-81
2022/10/21 12:44:01;;;;;;;6.68;3.95;;;13.80;99.90;;;;;;5221438;28;20041;-80
2022/10/21 12:46:41;;;;;;;6.00;4.53;;;13.80;99.90;;;;;;5220111;28;20453;-82
2022/10/21 12:49:20;;;;;;;7.60;4.40;;;13.90;99.90;;;;;;5211854;28;20504;-82
2022/10/21 12:52:19;;;;;;;8.38;4.60;;;13.70;99.90;;;;;;5221116;28;20029;-80
2022/10/21 12:55:02;;;;;;;5.43;3.95;;;13.80;99.90;;;;;;5205022;28;20043;-80
2022/10/21 12:57:37;;;;;;;5.00;4.32;;;14.00;99.90;;;;;;5221479;28;20041;-80
2022/10/21 13:00:35;;;;;;;4.50;3.85;;;14.40;99.90;;;;;;5223924;28;20105;-79
2022/10/21 13:03:11;;;;;;;5.82;4.45;;;14.40;99.90;;;;;;5204939;28;20100;-81
2022/10/21 13:05:45;;;;;;;6.55;4.72;;;14.50;99.90;;;;;;5196138;28;20063;-81
2022/10/21 13:08:21;;;;;;;7.05;4.47;;;14.60;99.90;;;;;;5232216;28;20051;-82
2022/10/21 13:11:04;;;;;;;6.70;3.85;;;14.60;99.90;;;;;;5248419;28;20121;-81
2022/10/21 13:13:43;;;;;;;7.28;4.50;;;14.80;99.90;;;;;;5248525;28;20044;-82
2022/10/21 13:16:14;;;;;;;6.32;4.10;;;14.90;99.90;;;;;;5250025;28;20047;-82
2022/10/21 13:18:58;;;;;;;5.30;4.40;;;14.80;99.90;;;;;;5248876;28;20145;-82
2022/10/21 13:21:30;;;;;;;6.28;4.25;;;15.10;99.90;;;;;;5238865;28;20024;-82
2022/10/21 13:24:35;;;;;;;7.03;4.25;;;15.40;99.90;;;;;;5249161;28;20181;-82
2022/10/21 13:27:29;;;;;;;11.38;5.18;;;15.70;99.90;;;;;;5180889;28;20319;-82
2022/10/21 13:30:05;;;;;;;9.55;4.55;;;16.00;99.90;;;;;;5176270;28;20032;-82
2022/10/21 13:32:37;;;;;;;7.22;4.63;;;15.60;99.90;;;;;;5156313;28;20324;-83
2022/10/21 13:35:11;;;;;;;9.70;4.68;;;15.10;99.90;;;;;;5182598;28;20051;-83
2022/10/21 13:37:56;;;;;;;7.88;4.78;;;14.40;99.90;;;;;;5183204;28;20046;-82
2022/10/21 13:40:43;;;;;;;6.88;4.70;;;14.30;99.90;;;;;;5183388;28;20341;-81
2022/10/21 13:43:20;;;;;;;7.38;4.85;;;14.20;99.90;;;;;;5181225;28;20036;-82
2022/10/21 13:46:06;;;;;;;10.25;4.63;;;14.20;99.90;;;;;;5165047;28;20041;-81
2022/10/21 13:48:40;;;;;;;7.25;4.80;;;14.10;99.90;;;;;;5179367;28;20032;-82
2022/10/21 13:51:26;;;;;;;7.85;5.25;;;14.10;99.90;;;;;;5170085;28;20219;-81